KFMN/FMN METAR and TAF weather

Enter ICAO airport designator
Station Type Date Time Source
KFMN METAR 2021/03/02 16:53 UTC NOAA

KFMN 021653Z 11006KT 10SM CLR 02/M11 A3025 RMK AO2 SLP264 T00221106


Station Type Date Time Source
KFMN Decoded METAR 2021/03/02 16:53 UTC NOAA

FARMINGTON FOUR CORNERS, NM, United States (KFMN) 36-45N 108-14W 1685M
Mar 02, 2021 - 11:53 AM EST / 2021.03.02 1653 UTC
Wind: from the ESE (110 degrees) at 7 MPH (6 KT):0
Visibility: 10 mile(s):0
Sky conditions: clear
Temperature: 36.0 F (2.2 C)
Dew Point: 12.9 F (-10.6 C)
Relative Humidity: 38%
Pressure (altimeter): 30.25 in. Hg (1024 hPa)
ob: KFMN 021653Z 11006KT 10SM CLR 02/M11 A3025 RMK AO2 SLP264 T00221106
cycle: 17

Station Type Date Time Source
KFMN TAF 2021/03/02 18:22 UTC NOAA

TAF KFMN 021720Z 0218/0318 11007KT P6SM SKC
FM022000 26006KT P6SM SKC
FM030100 VRB06KT P6SM SKC
FM030700 09007KT P6SM SKC
FM031700 14007KT P6SM FEW250

Example: see airport list